^^
Saratoga-Weather Station Historical Data
Daily Summary for September 13, 2021 Units:  Metric    English   Both
Daily Weekly Monthly Yearly Custom
  High: Low: Average:
Temperature: 26 °C 13 °C 18.4 °C
Dew Point: 16.2 °C 11.7 °C 14 °C
Humidity: 93% 49% 78%
Wind Speed: 7.9km/h 0km/h 0.9km/h
Wind Gust: 12.9km/h - -
Wind- - ESE
Pressure: 1017.3 hPa 1013.9 hPa -
Precipitation: 0.0 mm    
Historical Graphs
 
 
Tabular Data for September 13, 2021
Time Temperature Dew Point Pressure Wind Wind Speed Wind Gust Humidity Rainfall Rate (Hourly) solar
00:03 14.2 °C 12.4 °C 1017.3 hPa Calm     89% 0.0 mm 0 W/m2
00:08 14.1 °C 12.3 °C 1017.3 hPa Calm     89% 0.0 mm 0 W/m2
00:13 14.1 °C 12.3 °C 1017.3 hPa Calm   1.6 km/h 89% 0.0 mm 0 W/m2
00:18 14.1 °C 12.3 °C 1017.3 hPa Calm     89% 0.0 mm 0 W/m2
00:23 14 °C 12.4 °C 1017.3 hPa Calm   1.6 km/h 90% 0.0 mm 0 W/m2
00:28 13.9 °C 12.3 °C 1017.3 hPa Calm     90% 0.0 mm 0 W/m2
00:33 13.8 °C 12.2 °C 1017.3 hPa Calm     90% 0.0 mm 0 W/m2
00:38 13.8 °C 12.2 °C 1017.3 hPa Calm     90% 0.0 mm 0 W/m2
00:43 13.8 °C 12.2 °C 1017.3 hPa Calm     90% 0.0 mm 0 W/m2
00:48 13.7 °C 12.3 °C 1016.9 hPa Calm     91% 0.0 mm 0 W/m2
00:53 13.7 °C 12.3 °C 1016.9 hPa Calm     91% 0.0 mm 0 W/m2
00:58 13.7 °C 12.3 °C 1016.9 hPa Calm     91% 0.0 mm 0 W/m2
01:03 13.7 °C 12.3 °C 1017.3 hPa Calm     91% 0.0 mm 0 W/m2
01:08 13.6 °C 12.2 °C 1017.3 hPa Calm     91% 0.0 mm 0 W/m2
01:13 13.6 °C 12.2 °C 1016.9 hPa Calm     91% 0.0 mm 0 W/m2
01:18 13.6 °C 12.2 °C 1017.3 hPa Calm   1.6 km/h 91% 0.0 mm 0 W/m2
01:23 13.6 °C 12.2 °C 1016.9 hPa Calm     91% 0.0 mm 0 W/m2
01:28 13.5 °C 12.1 °C 1016.9 hPa Calm     91% 0.0 mm 0 W/m2
01:33 13.5 °C 12.1 °C 1016.9 hPa Calm     91% 0.0 mm 0 W/m2
01:38 13.4 °C 12 °C 1016.9 hPa Calm     91% 0.0 mm 0 W/m2
01:43 13.3 °C 11.9 °C 1016.9 hPa Calm     91% 0.0 mm 0 W/m2
01:48 13.3 °C 11.9 °C 1016.9 hPa Calm     91% 0.0 mm 0 W/m2
01:53 13.3 °C 11.9 °C 1016.9 hPa Calm     91% 0.0 mm 0 W/m2
01:58 13.2 °C 11.9 °C 1016.9 hPa Calm     92% 0.0 mm 0 W/m2
02:03 13.3 °C 12 °C 1016.9 hPa Calm     92% 0.0 mm 0 W/m2
02:08 13.3 °C 12 °C 1016.9 hPa Calm     92% 0.0 mm 0 W/m2
02:13 13.3 °C 12 °C 1016.9 hPa Calm     92% 0.0 mm 0 W/m2
02:18 13.3 °C 12 °C 1016.9 hPa Calm     92% 0.0 mm 0 W/m2
02:23 13.4 °C 12.1 °C 1016.9 hPa Calm     92% 0.0 mm 0 W/m2
02:28 13.4 °C 12.1 °C 1016.9 hPa Calm     92% 0.0 mm 0 W/m2
02:33 13.4 °C 12.1 °C 1016.9 hPa Calm     92% 0.0 mm 0 W/m2
02:38 13.6 °C 12.5 °C 1016.9 hPa Calm     93% 0.0 mm 0 W/m2
02:43 13.6 °C 12.5 °C 1016.9 hPa Calm     93% 0.0 mm 0 W/m2
02:48 13.7 °C 12.4 °C 1016.9 hPa Calm     92% 0.0 mm 0 W/m2
02:53 13.7 °C 12.4 °C 1016.9 hPa Calm     92% 0.0 mm 0 W/m2
02:58 13.8 °C 12.5 °C 1016.9 hPa Calm     92% 0.0 mm 0 W/m2
03:03 13.8 °C 12.5 °C 1016.9 hPa Calm     92% 0.0 mm 0 W/m2
03:08 13.9 °C 12.8 °C 1016.9 hPa Calm     93% 0.0 mm 0 W/m2
03:13 14.1 °C 13 °C 1016.6 hPa Calm     93% 0.0 mm 0 W/m2
03:18 14.2 °C 12.9 °C 1016.6 hPa Calm     92% 0.0 mm 0 W/m2
03:23 14.2 °C 12.9 °C 1016.6 hPa Calm     92% 0.0 mm 0 W/m2
03:28 14.3 °C 13 °C 1016.6 hPa Calm     92% 0.0 mm 0 W/m2
03:33 14.3 °C 13 °C 1016.6 hPa Calm     92% 0.0 mm 0 W/m2
03:38 14.3 °C 12.9 °C 1016.6 hPa Calm     91% 0.0 mm 0 W/m2
03:43 14.2 °C 12.8 °C 1016.6 hPa Calm     91% 0.0 mm 0 W/m2
03:48 14.2 °C 12.8 °C 1016.6 hPa Calm     91% 0.0 mm 0 W/m2
03:53 14.1 °C 12.7 °C 1016.6 hPa Calm     91% 0.0 mm 0 W/m2
03:58 13.9 °C 12.3 °C 1016.6 hPa Calm     90% 0.0 mm 0 W/m2
04:03 13.8 °C 12.2 °C 1016.6 hPa Calm     90% 0.0 mm 0 W/m2
04:08 13.7 °C 12.1 °C 1016.6 hPa Calm     90% 0.0 mm 0 W/m2
04:13 13.6 °C 12 °C 1016.6 hPa Calm     90% 0.0 mm 0 W/m2
04:18 13.5 °C 11.9 °C 1016.6 hPa Calm     90% 0.0 mm 0 W/m2
04:23 13.4 °C 12 °C 1016.3 hPa Calm     91% 0.0 mm 0 W/m2
04:28 13.3 °C 11.9 °C 1016.3 hPa Calm     91% 0.0 mm 0 W/m2
04:33 13.3 °C 11.9 °C 1016.3 hPa Calm     91% 0.0 mm 0 W/m2
04:38 13.2 °C 11.8 °C 1016.6 hPa Calm     91% 0.0 mm 0 W/m2
04:43 13.2 °C 11.8 °C 1016.6 hPa Calm     91% 0.0 mm 0 W/m2
04:48 13.1 °C 11.8 °C 1016.6 hPa Calm     92% 0.0 mm 0 W/m2
04:54 13 °C 11.7 °C 1016.6 hPa Calm     92% 0.0 mm 0 W/m2
04:59 13.1 °C 11.8 °C 1016.3 hPa Calm     92% 0.0 mm 0 W/m2
05:04 13.1 °C 12 °C 1016.3 hPa Calm     93% 0.0 mm 0 W/m2
05:09 13.1 °C 12 °C 1016.3 hPa Calm     93% 0.0 mm 0 W/m2
05:14 13.1 °C 12 °C 1016.3 hPa Calm     93% 0.0 mm 0 W/m2
05:19 13.1 °C 12 °C 1016.3 hPa Calm     93% 0.0 mm 0 W/m2
05:24 13.2 °C 12.1 °C 1016.3 hPa Calm   1.6 km/h 93% 0.0 mm 0 W/m2
05:29 13.3 °C 12.2 °C 1016.6 hPa Calm     93% 0.0 mm 0 W/m2
05:34 13.3 °C 12.2 °C 1016.6 hPa Calm   1.6 km/h 93% 0.0 mm 0 W/m2
05:39 13.4 °C 12.3 °C 1016.6 hPa Calm     93% 0.0 mm 0 W/m2
05:44 13.5 °C 12.4 °C 1016.6 hPa Calm     93% 0.0 mm 0 W/m2
05:49 13.6 °C 12.5 °C 1016.6 hPa Calm     93% 0.0 mm 0 W/m2
05:54 13.7 °C 12.6 °C 1016.6 hPa Calm     93% 0.0 mm 0 W/m2
05:59 13.7 °C 12.6 °C 1016.6 hPa Calm     93% 0.0 mm 0 W/m2
06:04 13.8 °C 12.7 °C 1016.3 hPa Calm   3.2 km/h 93% 0.0 mm 0 W/m2
06:09 13.9 °C 12.8 °C 1016.6 hPa Calm     93% 0.0 mm 0 W/m2
06:14 13.9 °C 12.8 °C 1016.6 hPa Calm   1.6 km/h 93% 0.0 mm 0 W/m2
06:19 14 °C 12.7 °C 1016.6 hPa Calm     92% 0.0 mm 0 W/m2
06:24 14 °C 12.7 °C 1016.6 hPa Calm     92% 0.0 mm 0 W/m2
06:29 14.1 °C 12.8 °C 1016.6 hPa Calm     92% 0.0 mm 0 W/m2
06:34 14.1 °C 12.8 °C 1016.6 hPa Calm     92% 0.0 mm 0 W/m2
06:39 14.1 °C 12.8 °C 1016.6 hPa Calm     92% 0.0 mm 0 W/m2
06:44 14.1 °C 12.8 °C 1016.3 hPa Calm     92% 0.0 mm 0 W/m2
06:49 14.1 °C 12.7 °C 1016.6 hPa Calm     91% 0.0 mm 0 W/m2
06:54 14.1 °C 12.7 °C 1016.6 hPa Calm     91% 0.0 mm 0 W/m2
06:59 14.1 °C 12.7 °C 1016.6 hPa Calm     91% 0.0 mm 0 W/m2
07:04 14.1 °C 12.7 °C 1016.6 hPa Calm     91% 0.0 mm 0 W/m2
07:09 14.1 °C 12.7 °C 1016.6 hPa Calm     91% 0.0 mm 0 W/m2
07:14 14.1 °C 12.7 °C 1016.6 hPa Calm     91% 0.0 mm 0 W/m2
07:19 14.1 °C 12.7 °C 1016.6 hPa Calm     91% 0.0 mm 5 W/m2
07:24 14.1 °C 12.7 °C 1016.6 hPa Calm     91% 0.0 mm 5 W/m2
07:29 14.2 °C 12.8 °C 1016.6 hPa Calm     91% 0.0 mm 5 W/m2
07:34 14.1 °C 12.7 °C 1016.6 hPa Calm     91% 0.0 mm 9 W/m2
07:39 14.1 °C 12.7 °C 1016.6 hPa Calm     91% 0.0 mm 18 W/m2
07:44 14.2 °C 12.6 °C 1016.6 hPa Calm     90% 0.0 mm 21 W/m2
07:49 14.2 °C 12.6 °C 1016.6 hPa Calm     90% 0.0 mm 28 W/m2
07:54 14.2 °C 12.6 °C 1016.6 hPa Calm   1.6 km/h 90% 0.0 mm 33 W/m2
07:59 14.2 °C 12.6 °C 1016.6 hPa Calm   1.6 km/h 90% 0.0 mm 42 W/m2
08:04 14.3 °C 12.7 °C 1016.6 hPa SSE 1.4 km/h 1.6 km/h 90% 0.0 mm 46 W/m2
08:09 14.3 °C 12.7 °C 1016.6 hPa Calm     90% 0.0 mm 51 W/m2
08:14 14.4 °C 12.8 °C 1016.6 hPa Calm     90% 0.0 mm 56 W/m2
08:19 14.5 °C 12.7 °C 1016.6 hPa Calm     89% 0.0 mm 60 W/m2
08:24 14.6 °C 12.8 °C 1016.9 hPa Calm     89% 0.0 mm 72 W/m2
08:29 14.6 °C 12.8 °C 1016.9 hPa Calm     89% 0.0 mm 76 W/m2
08:34 14.7 °C 12.9 °C 1016.9 hPa Calm     89% 0.0 mm 86 W/m2
08:39 14.8 °C 12.8 °C 1016.9 hPa Calm     88% 0.0 mm 90 W/m2
08:44 14.9 °C 12.9 °C 1016.9 hPa Calm     88% 0.0 mm 93 W/m2
08:49 14.9 °C 12.9 °C 1016.9 hPa Calm     88% 0.0 mm 95 W/m2
08:54 15.1 °C 13.1 °C 1016.9 hPa Calm     88% 0.0 mm 105 W/m2
08:59 15.2 °C 13 °C 1016.9 hPa Calm     87% 0.0 mm 116 W/m2
09:04 15.3 °C 13.1 °C 1016.9 hPa Calm     87% 0.0 mm 121 W/m2
09:09 15.3 °C 13 °C 1016.9 hPa Calm     86% 0.0 mm 128 W/m2
09:14 15.5 °C 13.3 °C 1016.9 hPa Calm     87% 0.0 mm 141 W/m2
09:19 15.6 °C 13.3 °C 1016.9 hPa Calm   1.6 km/h 86% 0.0 mm 86 W/m2
09:24 15.7 °C 13.4 °C 1016.9 hPa Calm     86% 0.0 mm 192 W/m2
09:29 15.9 °C 13.6 °C 1016.9 hPa Calm   3.2 km/h 86% 0.0 mm 304 W/m2
09:34 16.1 °C 13.4 °C 1016.9 hPa NNW 1.4 km/h 3.2 km/h 84% 0.0 mm 315 W/m2
09:39 16.3 °C 13.4 °C 1016.9 hPa NNW 3.2 km/h 4.8 km/h 83% 0.0 mm 308 W/m2
09:44 16.5 °C 13.6 °C 1016.9 hPa Calm   4.8 km/h 83% 0.0 mm 332 W/m2
09:49 16.8 °C 13.9 °C 1016.9 hPa Calm   1.6 km/h 83% 0.0 mm 355 W/m2
09:54 16.9 °C 13.8 °C 1016.9 hPa ENE 3.2 km/h 4.8 km/h 82% 0.0 mm 362 W/m2
09:59 17.3 °C 13.8 °C 1016.9 hPa ESE 1.4 km/h 4.8 km/h 80% 0.0 mm 362 W/m2
10:04 17.5 °C 13.8 °C 1016.9 hPa NNW 1.4 km/h 3.2 km/h 79% 0.0 mm 388 W/m2
10:09 17.8 °C 14.1 °C 1016.9 hPa NE 7.9 km/h 8 km/h 79% 0.0 mm 388 W/m2
10:14 17.9 °C 14 °C 1016.9 hPa NE 1.4 km/h 6.4 km/h 78% 0.0 mm 376 W/m2
10:19 18 °C 13.9 °C 1017.3 hPa East 3.2 km/h 8 km/h 77% 0.0 mm 408 W/m2
10:24 18.2 °C 14.3 °C 1017.3 hPa ENE 3.2 km/h 4.8 km/h 78% 0.0 mm 441 W/m2
10:29 18.4 °C 14.1 °C 1017.3 hPa East 1.4 km/h 4.8 km/h 76% 0.0 mm 427 W/m2
10:34 18.5 °C 14 °C 1017.3 hPa Calm   3.2 km/h 75% 0.0 mm 441 W/m2
10:39 18.6 °C 14.1 °C 1017.3 hPa Calm   3.2 km/h 75% 0.0 mm 420 W/m2
10:45 18.7 °C 14.2 °C 1016.9 hPa Calm   4.8 km/h 75% 0.0 mm 425 W/m2
10:55 19 °C 14.5 °C 1017.3 hPa Calm   3.2 km/h 75% 0.0 mm 540 W/m2
11:00 19.2 °C 14.5 °C 1016.9 hPa East 3.2 km/h 6.4 km/h 74% 0.0 mm 496 W/m2
11:05 19.4 °C 14.6 °C 1016.9 hPa Calm   4.8 km/h 74% 0.0 mm 508 W/m2
11:10 19.7 °C 14.7 °C 1017.3 hPa East 3.2 km/h 4.8 km/h 73% 0.0 mm 529 W/m2
11:15 19.8 °C 14.6 °C 1017.3 hPa NNE 1.4 km/h 6.4 km/h 72% 0.0 mm 536 W/m2
11:20 19.8 °C 14.8 °C 1016.9 hPa ENE 3.2 km/h 4.8 km/h 73% 0.0 mm 541 W/m2
11:25 19.8 °C 14.6 °C 1016.9 hPa North 1.4 km/h 3.2 km/h 72% 0.0 mm 543 W/m2
11:30 20 °C 14.6 °C 1016.9 hPa SE 3.2 km/h 4.8 km/h 71% 0.0 mm 536 W/m2
11:35 20.2 °C 15.2 °C 1016.9 hPa SE 3.2 km/h 3.2 km/h 73% 0.0 mm 606 W/m2
11:40 20.4 °C 15.2 °C 1016.9 hPa Calm   6.4 km/h 72% 0.0 mm 568 W/m2
11:45 20.6 °C 15.2 °C 1016.9 hPa ENE 6.4 km/h 6.4 km/h 71% 0.0 mm 570 W/m2
11:50 20.8 °C 15.3 °C 1016.9 hPa ESE 1.4 km/h 9.7 km/h 71% 0.0 mm 603 W/m2
12:00 21.2 °C 15.5 °C 1016.9 hPa Calm   6.4 km/h 70% 0.0 mm 515 W/m2
12:05 21.4 °C 15.2 °C 1016.9 hPa ESE 1.4 km/h 3.2 km/h 68% 0.0 mm 638 W/m2
12:10 21.8 °C 15.6 °C 1016.9 hPa Calm   3.2 km/h 68% 0.0 mm 580 W/m2
12:15 22.1 °C 15.4 °C 1016.6 hPa ENE 6.4 km/h 6.4 km/h 66% 0.0 mm 628 W/m2
12:20 22.2 °C 15.5 °C 1016.6 hPa Calm   3.2 km/h 66% 0.0 mm 563 W/m2
12:25 22.6 °C 15.9 °C 1016.6 hPa East 1.4 km/h 4.8 km/h 66% 0.0 mm 628 W/m2
12:30 22.7 °C 15.5 °C 1016.6 hPa NE 3.2 km/h 6.4 km/h 64% 0.0 mm 543 W/m2
12:35 22.7 °C 15.5 °C 1016.3 hPa ENE 1.4 km/h 3.2 km/h 64% 0.0 mm 582 W/m2
12:40 22.7 °C 15.3 °C 1016.3 hPa East 3.2 km/h 4.8 km/h 63% 0.0 mm 578 W/m2
12:45 22.8 °C 15.6 °C 1016.3 hPa SE 3.2 km/h 6.4 km/h 64% 0.0 mm 531 W/m2
12:50 22.9 °C 15.5 °C 1016.3 hPa SSE 3.2 km/h 8 km/h 63% 0.0 mm 587 W/m2
12:55 23 °C 15.6 °C 1016.3 hPa East 1.4 km/h 3.2 km/h 63% 0.0 mm 570 W/m2
13:00 23.1 °C 15.4 °C 1016.3 hPa ENE 4.7 km/h 6.4 km/h 62% 0.0 mm 603 W/m2
13:05 23.2 °C 15.5 °C 1016.3 hPa NE 1.4 km/h 6.4 km/h 62% 0.0 mm 621 W/m2
13:10 23.3 °C 15.4 °C 1015.9 hPa ENE 1.4 km/h 4.8 km/h 61% 0.0 mm 654 W/m2
13:15 23.4 °C 14.9 °C 1015.9 hPa East 6.4 km/h 9.7 km/h 59% 0.0 mm 668 W/m2
13:20 23.3 °C 15.1 °C 1015.9 hPa Calm   11.3 km/h 60% 0.0 mm 664 W/m2
13:25 23.4 °C 15.4 °C 1015.9 hPa ESE 3.2 km/h 4.8 km/h 61% 0.0 mm 584 W/m2
13:30 23.6 °C 15.1 °C 1015.6 hPa Calm   6.4 km/h 59% 0.0 mm 635 W/m2
13:35 23.7 °C 15.2 °C 1015.9 hPa ENE 1.4 km/h 3.2 km/h 59% 0.0 mm 599 W/m2
13:40 23.8 °C 15.6 °C 1015.6 hPa ENE 3.2 km/h 6.4 km/h 60% 0.0 mm 589 W/m2
13:45 23.8 °C 14.8 °C 1015.9 hPa Calm   8 km/h 57% 0.0 mm 526 W/m2
13:50 23.8 °C 15 °C 1015.9 hPa SSE 1.4 km/h 4.8 km/h 58% 0.0 mm 512 W/m2
13:55 23.9 °C 16.2 °C 1015.9 hPa NNW 3.2 km/h 3.2 km/h 62% 0.0 mm 519 W/m2
14:00 23.9 °C 15.9 °C 1015.9 hPa East 1.4 km/h 1.6 km/h 61% 0.0 mm 478 W/m2
14:05 23.8 °C 15.3 °C 1015.6 hPa SW 3.2 km/h 4.8 km/h 59% 0.0 mm 494 W/m2
14:10 23.8 °C 15.3 °C 1015.6 hPa SE 3.2 km/h 8 km/h 59% 0.0 mm 471 W/m2
14:15 23.9 °C 15.1 °C 1015.6 hPa ESE 4.7 km/h 9.7 km/h 58% 0.0 mm 621 W/m2
14:20 23.8 °C 15.3 °C 1015.6 hPa SSE 1.4 km/h 4.8 km/h 59% 0.0 mm 636 W/m2
14:25 24 °C 15.8 °C 1015.6 hPa NE 1.4 km/h 1.6 km/h 60% 0.0 mm 650 W/m2
14:30 24.2 °C 15.1 °C 1015.6 hPa East 1.4 km/h 9.7 km/h 57% 0.0 mm 694 W/m2
14:35 24.3 °C 15.2 °C 1015.6 hPa SE 3.2 km/h 4.8 km/h 57% 0.0 mm 629 W/m2
14:40 24.2 °C 14.9 °C 1015.2 hPa SE 1.4 km/h 9.7 km/h 56% 0.0 mm 626 W/m2
14:45 24.3 °C 15 °C 1015.2 hPa SE 3.2 km/h 12.9 km/h 56% 0.0 mm 694 W/m2
14:50 24.3 °C 15 °C 1015.2 hPa ENE 4.7 km/h 11.3 km/h 56% 0.0 mm 654 W/m2
14:55 24.4 °C 15.1 °C 1015.2 hPa NE 3.2 km/h 12.9 km/h 56% 0.0 mm 635 W/m2
15:01 24.7 °C 15.1 °C 1015.2 hPa SSE 7.9 km/h 8 km/h 55% 0.0 mm 638 W/m2
15:06 24.8 °C 15.1 °C 1015.2 hPa East 4.7 km/h 6.4 km/h 55% 0.0 mm 626 W/m2
15:11 24.9 °C 15.8 °C 1015.2 hPa East 3.2 km/h 3.2 km/h 57% 0.0 mm 251 W/m2
15:16 24.8 °C 15.1 °C 1015.2 hPa Calm   3.2 km/h 55% 0.0 mm 568 W/m2
15:21 24.9 °C 15.5 °C 1014.9 hPa East 3.2 km/h 6.4 km/h 56% 0.0 mm 541 W/m2
15:26 24.8 °C 15.1 °C 1014.9 hPa West 3.2 km/h 4.8 km/h 55% 0.0 mm 527 W/m2
15:31 24.9 °C 15.8 °C 1015.2 hPa NE 4.7 km/h 4.8 km/h 57% 0.0 mm 601 W/m2
15:36 24.8 °C 15.7 °C 1014.9 hPa Calm   4.8 km/h 57% 0.0 mm 601 W/m2
15:41 24.7 °C 15.6 °C 1014.9 hPa SE 1.4 km/h 1.6 km/h 57% 0.0 mm 585 W/m2
15:46 24.7 °C 15.3 °C 1014.9 hPa ENE 3.2 km/h 4.8 km/h 56% 0.0 mm 621 W/m2
15:51 24.9 °C 15.2 °C 1014.9 hPa NNE 3.2 km/h 3.2 km/h 55% 0.0 mm 603 W/m2
15:56 25.1 °C 14.8 °C 1014.9 hPa NNE 3.2 km/h 6.4 km/h 53% 0.0 mm 571 W/m2
16:01 25.1 °C 14.6 °C 1014.9 hPa ENE 3.2 km/h 4.8 km/h 52% 0.0 mm 517 W/m2
16:06 25.2 °C 14.6 °C 1014.9 hPa East 1.4 km/h 3.2 km/h 52% 0.0 mm 629 W/m2
16:11 25.4 °C 14.8 °C 1014.9 hPa East 1.4 km/h 3.2 km/h 52% 0.0 mm 533 W/m2
16:16 25.6 °C 15.6 °C 1014.9 hPa NW 1.4 km/h 4.8 km/h 54% 0.0 mm 503 W/m2
16:21 25.7 °C 15.4 °C 1014.9 hPa NNW 3.2 km/h 9.7 km/h 53% 0.0 mm 599 W/m2
16:26 25.7 °C 15.4 °C 1014.9 hPa East 3.2 km/h 6.4 km/h 53% 0.0 mm 480 W/m2
16:31 25.7 °C 15.4 °C 1014.9 hPa East 4.7 km/h 6.4 km/h 53% 0.0 mm 504 W/m2
16:36 25.6 °C 15.6 °C 1014.6 hPa ESE 3.2 km/h 6.4 km/h 54% 0.0 mm 538 W/m2
16:41 25.5 °C 15.2 °C 1014.6 hPa SE 1.4 km/h 1.6 km/h 53% 0.0 mm 487 W/m2
16:46 25.7 °C 15.4 °C 1014.6 hPa Calm   1.6 km/h 53% 0.0 mm 512 W/m2
16:51 25.9 °C 14.4 °C 1014.6 hPa ESE 1.4 km/h 4.8 km/h 49% 0.0 mm 503 W/m2
16:56 25.9 °C 15.6 °C 1014.6 hPa Calm   1.6 km/h 53% 0.0 mm 482 W/m2
17:01 25.8 °C 15.5 °C 1014.6 hPa Calm   3.2 km/h 53% 0.0 mm 462 W/m2
17:06 25.8 °C 15.8 °C 1014.6 hPa Calm     54% 0.0 mm 424 W/m2
17:11 25.9 °C 15.6 °C 1014.6 hPa East 1.4 km/h 1.6 km/h 53% 0.0 mm 422 W/m2
17:16 26 °C 15.1 °C 1014.6 hPa East 3.2 km/h 6.4 km/h 51% 0.0 mm 381 W/m2
17:21 25.9 °C 15.3 °C 1014.6 hPa ENE 1.4 km/h 1.6 km/h 52% 0.0 mm 424 W/m2
17:26 25.8 °C 15.2 °C 1014.6 hPa ESE 1.4 km/h 6.4 km/h 52% 0.0 mm 410 W/m2
17:31 25.9 °C 15.6 °C 1014.6 hPa SE 1.4 km/h 6.4 km/h 53% 0.0 mm 420 W/m2
17:36 25.8 °C 14.6 °C 1014.6 hPa ENE 4.7 km/h 6.4 km/h 50% 0.0 mm 411 W/m2
17:41 25.8 °C 15.2 °C 1014.2 hPa Calm   1.6 km/h 52% 0.0 mm 380 W/m2
17:46 25.8 °C 15.8 °C 1014.6 hPa Calm     54% 0.0 mm 373 W/m2
17:51 25.8 °C 14.9 °C 1014.2 hPa ESE 3.2 km/h 3.2 km/h 51% 0.0 mm 369 W/m2
17:56 25.9 °C 15.3 °C 1014.2 hPa Calm   3.2 km/h 52% 0.0 mm 301 W/m2
18:01 25.9 °C 15.9 °C 1014.2 hPa Calm     54% 0.0 mm 272 W/m2
18:06 25.9 °C 15.3 °C 1014.2 hPa Calm   1.6 km/h 52% 0.0 mm 241 W/m2
18:11 25.6 °C 15 °C 1014.2 hPa NE 3.2 km/h 9.7 km/h 52% 0.0 mm 188 W/m2
18:16 25.2 °C 14.9 °C 1014.2 hPa SE 3.2 km/h 8 km/h 53% 0.0 mm 169 W/m2
18:21 24.8 °C 14.9 °C 1014.2 hPa East 3.2 km/h 4.8 km/h 54% 0.0 mm 134 W/m2
18:26 24.6 °C 14.7 °C 1014.2 hPa ESE 1.4 km/h 6.4 km/h 54% 0.0 mm 139 W/m2
18:31 24.4 °C 15.1 °C 1014.2 hPa ESE 1.4 km/h 3.2 km/h 56% 0.0 mm 127 W/m2
18:36 24.2 °C 14.9 °C 1013.9 hPa East 1.4 km/h 4.8 km/h 56% 0.0 mm 114 W/m2
18:41 24 °C 14.7 °C 1013.9 hPa NE 4.7 km/h 4.8 km/h 56% 0.0 mm 100 W/m2
18:46 23.8 °C 15.3 °C 1013.9 hPa Calm   1.6 km/h 59% 0.0 mm 79 W/m2
18:51 23.7 °C 16 °C 1014.2 hPa Calm     62% 0.0 mm 79 W/m2
18:56 23.3 °C 16.1 °C 1013.9 hPa SE 1.4 km/h 3.2 km/h 64% 0.0 mm 56 W/m2
19:01 22.9 °C 15.7 °C 1014.2 hPa SE 1.4 km/h 3.2 km/h 64% 0.0 mm 46 W/m2
19:06 22.6 °C 15.7 °C 1014.2 hPa Calm   3.2 km/h 65% 0.0 mm 39 W/m2
19:11 22.3 °C 15.9 °C 1013.9 hPa Calm   3.2 km/h 67% 0.0 mm 33 W/m2
19:16 22 °C 15.6 °C 1014.2 hPa Calm   3.2 km/h 67% 0.0 mm 30 W/m2
19:21 21.7 °C 15.5 °C 1014.2 hPa SE 1.4 km/h 3.2 km/h 68% 0.0 mm 26 W/m2
19:26 21.4 °C 15.5 °C 1014.2 hPa SE 1.4 km/h 3.2 km/h 69% 0.0 mm 23 W/m2
19:31 21.2 °C 15.5 °C 1013.9 hPa Calm   1.6 km/h 70% 0.0 mm 19 W/m2
19:36 20.9 °C 15.4 °C 1013.9 hPa SE 1.4 km/h 3.2 km/h 71% 0.0 mm 14 W/m2
19:41 20.7 °C 15.3 °C 1013.9 hPa SE 1.4 km/h 3.2 km/h 71% 0.0 mm 9 W/m2
19:46 20.4 °C 15.2 °C 1014.2 hPa Calm     72% 0.0 mm 7 W/m2
19:51 20.1 °C 15.1 °C 1014.2 hPa SE 1.4 km/h 3.2 km/h 73% 0.0 mm 5 W/m2
19:56 19.8 °C 15.2 °C 1013.9 hPa Calm   1.6 km/h 75% 0.0 mm 0 W/m2
20:01 19.7 °C 15.1 °C 1013.9 hPa Calm   1.6 km/h 75% 0.0 mm 0 W/m2
20:06 19.4 °C 15.1 °C 1013.9 hPa Calm   1.6 km/h 76% 0.0 mm 0 W/m2
20:12 19.2 °C 15.1 °C 1014.2 hPa SE 1.4 km/h 1.6 km/h 77% 0.0 mm 0 W/m2
20:17 19.1 °C 15.2 °C 1014.2 hPa Calm   1.6 km/h 78% 0.0 mm 0 W/m2
20:22 18.9 °C 15.2 °C 1014.2 hPa Calm   1.6 km/h 79% 0.0 mm 0 W/m2
20:27 18.7 °C 15 °C 1013.9 hPa Calm     79% 0.0 mm 0 W/m2
20:32 18.6 °C 15.1 °C 1014.2 hPa Calm     80% 0.0 mm 0 W/m2
20:37 18.4 °C 14.9 °C 1014.2 hPa Calm   3.2 km/h 80% 0.0 mm 0 W/m2
20:42 18.4 °C 15.1 °C 1014.2 hPa Calm   1.6 km/h 81% 0.0 mm 0 W/m2
20:47 18.4 °C 15.1 °C 1014.2 hPa SE 1.4 km/h 1.6 km/h 81% 0.0 mm 0 W/m2
20:52 18.4 °C 15.1 °C 1014.2 hPa SE 1.4 km/h 1.6 km/h 81% 0.0 mm 0 W/m2
20:57 18.4 °C 15.1 °C 1014.2 hPa Calm   1.6 km/h 81% 0.0 mm 0 W/m2
21:02 18.3 °C 15 °C 1014.6 hPa Calm     81% 0.0 mm 0 W/m2
21:07 18.2 °C 15.1 °C 1014.6 hPa Calm   1.6 km/h 82% 0.0 mm 0 W/m2
21:12 18.1 °C 15 °C 1014.6 hPa SE 1.4 km/h 1.6 km/h 82% 0.0 mm 0 W/m2
21:17 18 °C 14.9 °C 1014.6 hPa Calm     82% 0.0 mm 0 W/m2
21:22 17.9 °C 15 °C 1014.6 hPa Calm     83% 0.0 mm 0 W/m2
21:27 17.8 °C 14.9 °C 1014.6 hPa Calm   1.6 km/h 83% 0.0 mm 0 W/m2
21:32 17.7 °C 15 °C 1014.6 hPa Calm   1.6 km/h 84% 0.0 mm 0 W/m2
21:37 17.7 °C 15 °C 1014.6 hPa Calm   1.6 km/h 84% 0.0 mm 0 W/m2
21:42 17.6 °C 14.9 °C 1014.6 hPa Calm     84% 0.0 mm 0 W/m2
21:47 17.6 °C 14.9 °C 1014.6 hPa Calm   3.2 km/h 84% 0.0 mm 0 W/m2
21:52 17.4 °C 14.7 °C 1014.6 hPa Calm   1.6 km/h 84% 0.0 mm 0 W/m2
21:57 17.4 °C 14.9 °C 1014.9 hPa Calm   1.6 km/h 85% 0.0 mm 0 W/m2
22:02 17.4 °C 14.9 °C 1014.6 hPa Calm     85% 0.0 mm 0 W/m2
22:07 17.3 °C 14.8 °C 1014.9 hPa SE 1.4 km/h 1.6 km/h 85% 0.0 mm 0 W/m2
22:12 17.2 °C 14.7 °C 1014.6 hPa Calm   1.6 km/h 85% 0.0 mm 0 W/m2
22:22 17.1 °C 14.6 °C 1014.6 hPa Calm   1.6 km/h 85% 0.0 mm 0 W/m2
22:27 17.1 °C 14.7 °C 1014.6 hPa Calm     86% 0.0 mm 0 W/m2
22:32 16.9 °C 14.5 °C 1014.6 hPa Calm     86% 0.0 mm 0 W/m2
22:37 16.9 °C 14.5 °C 1014.6 hPa Calm     86% 0.0 mm 0 W/m2
22:42 16.8 °C 14.4 °C 1014.6 hPa Calm     86% 0.0 mm 0 W/m2
22:47 16.8 °C 14.6 °C 1014.6 hPa Calm     87% 0.0 mm 0 W/m2
22:52 16.7 °C 14.5 °C 1014.6 hPa Calm     87% 0.0 mm 0 W/m2
22:57 16.7 °C 14.5 °C 1014.6 hPa Calm     87% 0.0 mm 0 W/m2
23:02 16.6 °C 14.4 °C 1014.6 hPa Calm     87% 0.0 mm 0 W/m2
23:07 16.6 °C 14.6 °C 1014.6 hPa Calm     88% 0.0 mm 0 W/m2
23:12 16.5 °C 14.5 °C 1014.6 hPa Calm     88% 0.0 mm 0 W/m2
23:17 16.4 °C 14.4 °C 1014.6 hPa Calm     88% 0.0 mm 0 W/m2
23:22 16.4 °C 14.4 °C 1014.6 hPa Calm     88% 0.0 mm 0 W/m2
23:27 16.3 °C 14.3 °C 1014.6 hPa Calm     88% 0.0 mm 0 W/m2
23:32 16.3 °C 14.3 °C 1014.6 hPa Calm     88% 0.0 mm 0 W/m2
23:37 16.3 °C 14.5 °C 1014.6 hPa Calm     89% 0.0 mm 0 W/m2
23:42 16.3 °C 14.5 °C 1014.6 hPa Calm     89% 0.0 mm 0 W/m2
23:47 16.2 °C 14.4 °C 1014.6 hPa Calm   1.6 km/h 89% 0.0 mm 0 W/m2
23:52 16.2 °C 14.4 °C 1014.6 hPa Calm     89% 0.0 mm 0 W/m2
23:57 16.2 °C 14.4 °C 1014.6 hPa Calm   1.6 km/h 89% 0.0 mm 0 W/m2
Juneau County Weather
Compliments of Weather Underground - 4 mb